createdAt,value
2019-05-05T00:01:45.031Z,55.80
2019-05-05T00:06:06.430Z,55.80
2019-05-05T00:10:57.086Z,55.70
2019-05-05T00:15:41.082Z,55.50
2019-05-05T00:19:59.358Z,55.50
2019-05-05T00:24:17.892Z,55.50
2019-05-05T00:28:36.574Z,55.60
2019-05-05T00:32:55.050Z,55.80
2019-05-05T00:37:15.129Z,55.80
2019-05-05T00:41:35.060Z,55.90
2019-05-05T00:45:55.724Z,55.90
2019-05-05T00:50:19.753Z,55.70
2019-05-05T00:54:38.113Z,55.80
2019-05-05T00:59:00.190Z,55.90
2019-05-05T01:03:24.196Z,56.00
2019-05-05T01:07:44.255Z,56.10
2019-05-05T01:12:04.269Z,56.20
2019-05-05T01:16:24.575Z,56.10
2019-05-05T01:20:44.826Z,56.10
2019-05-05T01:25:05.282Z,55.90
2019-05-05T01:29:25.249Z,55.80
2019-05-05T01:34:07.776Z,55.90
2019-05-05T01:38:41.146Z,55.90
2019-05-05T01:42:59.801Z,55.90
2019-05-05T01:47:18.495Z,56.10
2019-05-05T01:51:36.834Z,55.90
2019-05-05T01:55:55.589Z,55.90
2019-05-05T02:00:14.950Z,56.20
2019-05-05T02:04:34.378Z,56.00
2019-05-05T02:08:54.689Z,56.10
2019-05-05T02:13:12.674Z,56.00
2019-05-05T02:17:31.397Z,55.90
2019-05-05T02:21:50.858Z,56.10
2019-05-05T02:26:10.782Z,56.20
2019-05-05T02:30:39.811Z,56.50
2019-05-05T02:35:00.004Z,56.60
2019-05-05T02:39:18.432Z,56.80
2019-05-05T02:43:39.357Z,56.70
2019-05-05T02:48:15.292Z,57.00
2019-05-05T02:52:34.806Z,57.10
2019-05-05T02:56:54.724Z,57.00
2019-05-05T03:01:35.908Z,56.90
2019-05-05T03:05:55.031Z,57.10
2019-05-05T03:10:14.139Z,57.40
2019-05-05T03:14:36.125Z,57.20
2019-05-05T03:18:55.808Z,57.20
2019-05-05T03:23:14.578Z,57.20
2019-05-05T03:27:34.209Z,57.40
2019-05-05T03:31:56.297Z,57.50
2019-05-05T03:36:14.130Z,57.30
2019-05-05T03:40:34.442Z,57.40
2019-05-05T03:45:12.111Z,57.40
2019-05-05T03:49:33.682Z,57.40
2019-05-05T03:53:53.489Z,57.50
2019-05-05T03:58:12.080Z,57.40
2019-05-05T04:02:55.385Z,57.60
2019-05-05T04:07:14.116Z,57.50
2019-05-05T04:11:33.810Z,57.60
2019-05-05T04:16:18.478Z,57.60
2019-05-05T04:20:44.037Z,57.60
2019-05-05T04:25:01.969Z,57.60
2019-05-05T04:29:20.659Z,57.60
2019-05-05T04:33:38.808Z,57.60
2019-05-05T04:37:57.029Z,57.40
2019-05-05T04:42:15.450Z,57.40
2019-05-05T04:46:34.813Z,57.40
2019-05-05T04:51:21.151Z,57.30
2019-05-05T04:55:39.778Z,57.30
2019-05-05T04:59:58.202Z,57.10
2019-05-05T05:04:53.446Z,57.30
2019-05-05T05:09:11.476Z,57.50
2019-05-05T05:13:32.150Z,57.30
2019-05-05T05:18:11.797Z,57.30
2019-05-05T05:22:33.513Z,57.30
2019-05-05T05:26:52.946Z,57.60
2019-05-05T05:31:13.968Z,57.30
2019-05-05T05:35:33.600Z,57.30
2019-05-05T05:40:08.535Z,57.40
2019-05-05T05:44:45.909Z,57.30
2019-05-05T05:49:13.464Z,57.40
2019-05-05T05:53:34.913Z,57.30
2019-05-05T05:57:54.153Z,57.50
2019-05-05T06:02:15.486Z,57.50
2019-05-05T06:06:36.357Z,57.60
2019-05-05T06:10:55.733Z,57.30
2019-05-05T06:15:16.242Z,57.60
2019-05-05T06:19:37.102Z,57.60
2019-05-05T06:23:55.363Z,57.70
2019-05-05T06:28:14.522Z,57.80
2019-05-05T06:32:34.290Z,57.60
2019-05-05T06:36:53.794Z,57.20
2019-05-05T06:41:40.442Z,57.30
2019-05-05T06:46:04.042Z,57.10
2019-05-05T06:50:24.188Z,56.80
2019-05-05T06:54:43.819Z,56.70
2019-05-05T06:59:04.303Z,56.70
2019-05-05T07:03:24.201Z,56.70
2019-05-05T07:07:43.549Z,56.70
2019-05-05T07:12:04.290Z,56.70
2019-05-05T07:16:24.167Z,57.00
2019-05-05T07:20:44.058Z,57.10
2019-05-05T07:25:04.682Z,57.10
2019-05-05T07:29:24.019Z,57.40
2019-05-05T07:33:43.919Z,57.60
2019-05-05T07:38:04.495Z,57.60
2019-05-05T07:42:24.295Z,57.60
2019-05-05T07:46:44.069Z,57.70
2019-05-05T07:51:05.318Z,57.30
2019-05-05T07:55:23.787Z,57.30
2019-05-05T07:59:44.992Z,57.60
2019-05-05T08:04:04.525Z,57.80
2019-05-05T08:08:24.415Z,56.50
2019-05-05T08:12:43.701Z,56.20
2019-05-05T08:17:10.919Z,55.70
2019-05-05T08:21:30.604Z,56.20
2019-05-05T08:26:20.000Z,56.40
2019-05-05T08:30:47.854Z,56.60
2019-05-05T08:35:07.917Z,57.60
2019-05-05T08:39:27.448Z,59.10
2019-05-05T08:43:46.238Z,60.10
2019-05-05T08:48:05.013Z,56.00
2019-05-05T08:52:23.903Z,56.90
2019-05-05T08:56:44.787Z,56.70
2019-05-05T09:01:04.432Z,56.40
2019-05-05T09:05:24.808Z,57.70
2019-05-05T09:09:44.147Z,57.50
2019-05-05T09:14:04.111Z,57.00
2019-05-05T09:18:24.597Z,58.50
2019-05-05T09:22:44.533Z,59.50
2019-05-05T09:27:07.854Z,59.70
2019-05-05T09:31:26.352Z,60.10
2019-05-05T09:35:45.710Z,60.80
2019-05-05T09:40:04.668Z,58.40
2019-05-05T09:44:24.249Z,58.60
2019-05-05T09:48:44.027Z,58.60
2019-05-05T09:53:04.229Z,57.90
2019-05-05T09:57:23.816Z,56.10
2019-05-05T10:01:44.523Z,55.60
2019-05-05T10:06:05.000Z,56.40
2019-05-05T10:10:24.439Z,54.70
2019-05-05T10:14:44.972Z,52.90
2019-05-05T10:19:04.601Z,49.80
2019-05-05T10:23:25.108Z,50.70
2019-05-05T10:27:47.774Z,49.80
2019-05-05T10:32:06.317Z,50.00
2019-05-05T10:36:29.151Z,49.20
2019-05-05T10:40:48.457Z,49.20
2019-05-05T10:45:08.792Z,48.20
2019-05-05T10:49:28.009Z,46.80
2019-05-05T10:53:46.333Z,45.30
2019-05-05T10:58:04.839Z,45.10
2019-05-05T11:02:24.187Z,45.50
2019-05-05T11:06:44.100Z,46.00
2019-05-05T11:11:04.194Z,46.80
2019-05-05T11:15:24.603Z,47.50
2019-05-05T11:19:44.348Z,49.90
2019-05-05T11:24:02.629Z,48.70
2019-05-05T11:28:22.248Z,46.80
2019-05-05T11:32:58.465Z,46.90
2019-05-05T11:37:19.515Z,45.90
2019-05-05T11:41:38.073Z,45.40
2019-05-05T11:45:57.091Z,45.70
2019-05-05T11:50:15.513Z,46.10
2019-05-05T11:54:33.894Z,46.00
2019-05-05T11:58:54.673Z,45.00
2019-05-05T12:03:14.411Z,45.00
2019-05-05T12:07:34.743Z,45.60
2019-05-05T12:11:54.485Z,45.40
2019-05-05T12:16:30.523Z,46.00
2019-05-05T12:20:49.271Z,45.40
2019-05-05T12:25:28.577Z,44.80
2019-05-05T12:29:54.647Z,43.80
2019-05-05T12:34:13.182Z,45.00
2019-05-05T12:38:31.573Z,45.10
2019-05-05T12:42:50.238Z,45.10
2019-05-05T12:47:27.449Z,45.70
2019-05-05T12:51:46.731Z,46.10
2019-05-05T12:56:05.157Z,44.60
2019-05-05T13:00:25.799Z,42.40
2019-05-05T13:04:44.392Z,43.20
2019-05-05T13:09:02.801Z,44.00
2019-05-05T13:13:23.727Z,46.10
2019-05-05T13:17:43.749Z,47.30
2019-05-05T13:22:25.517Z,46.20
2019-05-05T13:26:57.434Z,46.30
2019-05-05T13:31:17.678Z,48.00
2019-05-05T13:35:36.550Z,49.40
2019-05-05T13:39:55.703Z,48.30
2019-05-05T13:44:21.431Z,47.40
2019-05-05T13:48:41.781Z,46.30
2019-05-05T13:53:00.652Z,45.60
2019-05-05T13:57:19.033Z,44.30
2019-05-05T14:01:38.569Z,43.60
2019-05-05T14:05:57.477Z,42.40
2019-05-05T14:10:17.351Z,42.10
2019-05-05T14:14:37.709Z,39.40
2019-05-05T14:18:56.646Z,38.50
2019-05-05T14:23:16.025Z,39.30
2019-05-05T14:27:34.336Z,40.10
2019-05-05T14:31:55.497Z,40.40
2019-05-05T14:36:24.734Z,40.80
2019-05-05T14:40:44.559Z,40.80
2019-05-05T14:45:04.761Z,40.30
2019-05-05T14:49:24.634Z,40.30
2019-05-05T14:53:43.787Z,39.70
2019-05-05T14:58:03.959Z,40.10
2019-05-05T15:02:24.408Z,39.60
2019-05-05T15:07:00.272Z,39.50
2019-05-05T15:11:47.175Z,39.20
2019-05-05T15:16:05.927Z,39.40
2019-05-05T15:20:24.592Z,39.60
2019-05-05T15:24:44.140Z,39.60
2019-05-05T15:29:02.667Z,38.10
2019-05-05T15:33:21.712Z,38.70
2019-05-05T15:37:40.314Z,38.90
2019-05-05T15:41:58.943Z,38.70
2019-05-05T15:46:25.159Z,37.70
2019-05-05T15:50:44.154Z,37.10
2019-05-05T15:55:04.532Z,37.30
2019-05-05T15:59:23.921Z,37.50
2019-05-05T16:03:43.947Z,38.30
2019-05-05T16:08:04.547Z,37.90
2019-05-05T16:12:34.015Z,38.40
2019-05-05T16:16:56.108Z,38.30
2019-05-05T16:21:34.610Z,37.10
2019-05-05T16:25:54.330Z,37.40
2019-05-05T16:30:14.829Z,36.80
2019-05-05T16:34:33.791Z,37.90
2019-05-05T16:38:53.527Z,38.30
2019-05-05T16:43:16.539Z,38.60
2019-05-05T16:47:33.644Z,37.90
2019-05-05T16:52:00.926Z,37.80
2019-05-05T16:56:20.104Z,37.50
2019-05-05T17:00:39.421Z,36.90
2019-05-05T17:04:58.179Z,37.60
2019-05-05T17:09:18.196Z,37.90
2019-05-05T17:13:58.732Z,38.00
2019-05-05T17:18:38.517Z,37.20
2019-05-05T17:23:00.021Z,37.40
2019-05-05T17:27:18.297Z,37.50
2019-05-05T17:31:36.644Z,37.90
2019-05-05T17:35:55.110Z,38.10
2019-05-05T17:40:24.348Z,38.30
2019-05-05T17:45:00.196Z,38.30
2019-05-05T17:49:50.871Z,38.30
2019-05-05T17:54:34.504Z,38.40
2019-05-05T17:58:53.826Z,39.10
2019-05-05T18:03:12.945Z,38.50
2019-05-05T18:07:40.709Z,38.50
2019-05-05T18:12:16.559Z,38.70
2019-05-05T18:16:34.992Z,38.50
2019-05-05T18:20:54.280Z,38.70
2019-05-05T18:25:14.352Z,38.70
2019-05-05T18:29:34.027Z,38.70
2019-05-05T18:33:54.350Z,38.70
2019-05-05T18:38:13.860Z,38.90
2019-05-05T18:42:33.998Z,39.00
2019-05-05T18:47:15.717Z,39.10
2019-05-05T18:51:34.617Z,39.10
2019-05-05T18:55:55.874Z,39.20
2019-05-05T19:00:18.549Z,39.30
2019-05-05T19:04:48.639Z,39.40
2019-05-05T19:09:09.022Z,39.60
2019-05-05T19:13:27.690Z,39.80
2019-05-05T19:17:45.997Z,40.10
2019-05-05T19:22:09.319Z,40.80
2019-05-05T19:26:29.073Z,40.50
2019-05-05T19:30:48.121Z,40.50
2019-05-05T19:35:06.973Z,40.70
2019-05-05T19:39:26.718Z,40.80
2019-05-05T19:43:55.021Z,40.80
2019-05-05T19:48:17.033Z,40.80
2019-05-05T19:52:35.333Z,41.00
2019-05-05T19:56:54.330Z,41.00
2019-05-05T20:01:12.873Z,41.10
2019-05-05T20:05:31.211Z,41.10
2019-05-05T20:09:49.660Z,41.20
2019-05-05T20:14:10.500Z,41.20
2019-05-05T20:18:30.030Z,41.10
2019-05-05T20:22:48.781Z,41.20
2019-05-05T20:27:07.820Z,41.40
2019-05-05T20:31:26.838Z,41.20
2019-05-05T20:36:14.371Z,41.20
2019-05-05T20:40:35.868Z,41.20
2019-05-05T20:44:54.982Z,41.20
2019-05-05T20:49:14.421Z,41.30
2019-05-05T20:53:34.455Z,41.40
2019-05-05T20:57:53.735Z,42.30
2019-05-05T21:02:13.668Z,42.30
2019-05-05T21:06:34.262Z,42.30
2019-05-05T21:10:53.769Z,42.40
2019-05-05T21:15:13.210Z,42.50
2019-05-05T21:19:34.550Z,42.50
2019-05-05T21:23:57.577Z,42.40
2019-05-05T21:28:16.066Z,42.50
2019-05-05T21:32:34.359Z,42.60
2019-05-05T21:36:54.096Z,42.60
2019-05-05T21:41:13.858Z,42.70
2019-05-05T21:45:34.488Z,42.70
2019-05-05T21:49:54.216Z,42.80
2019-05-05T21:54:30.421Z,42.80
2019-05-05T21:58:48.893Z,43.00
2019-05-05T22:03:07.761Z,43.10
2019-05-05T22:07:26.291Z,43.00
2019-05-05T22:11:44.732Z,43.20
2019-05-05T22:16:04.099Z,43.30
2019-05-05T22:20:29.405Z,43.30
2019-05-05T22:24:48.246Z,43.30
2019-05-05T22:29:06.524Z,43.50
2019-05-05T22:33:24.917Z,43.40
2019-05-05T22:37:43.942Z,43.30
2019-05-05T22:42:04.558Z,43.40
2019-05-05T22:46:23.768Z,43.50
2019-05-05T22:50:43.664Z,43.50
2019-05-05T22:55:04.535Z,43.50
2019-05-05T22:59:25.579Z,43.60
2019-05-05T23:03:55.232Z,43.60
2019-05-05T23:08:13.843Z,43.60
2019-05-05T23:12:35.065Z,43.60
2019-05-05T23:16:55.980Z,43.70
2019-05-05T23:21:31.326Z,43.80
2019-05-05T23:25:54.377Z,43.90
2019-05-05T23:30:15.774Z,44.00
2019-05-05T23:34:33.932Z,44.40
2019-05-05T23:38:54.698Z,44.30
2019-05-05T23:43:13.932Z,44.40
2019-05-05T23:47:34.558Z,44.50
2019-05-05T23:51:54.035Z,44.50
2019-05-05T23:56:13.620Z,44.60
